Station: Townsville Air Weapons Range (Defence)  

  Atmospheric Gas Attenuation - ITU Rec 676-11   ----------------- dB/100km -----------------
Date Time Temp RH % AH g/m3 Dew Point Wind Direction Speed kph Gust kph Barometer mB Rainfall Since 9am 24GHz 47GHz 76GHz 122GHz 134GHz 241GHz
08/05 12:30 28.2 50 13.75 16.8 15 24 1013.1 0 29.6 29.6 51.9 136.9 143.1 496.4
08/05 12:20 27.1 52 13.46 16.4 15 22 1013.1 0 29.1 29.5 51.5 135.8 141.3 490.3
08/05 12:10 25.5 58 13.73 16.6 9 15 1013.1 0 29.8 30.5 53.6 141.5 147.9 512.8
08/05 12:00 25.8 58 13.96 16.9 15 24 1013.1 0 30.2 30.8 54.3 143.4 150.3 521.5
08/05 11:50 26.9 54 13.82 16.8 11 13 1013.1 0 29.9 30.2 53.0 139.9 146.4 507.9
08/05 11:40 26.4 60 14.94 18 15 19 1013.1 0 32.2 32.2 57.9 153.0 162.3 563.3
08/05 11:30 26.6 55 13.84 16.8 13 24 1013.1 0 29.9 30.3 53.3 140.7 147.2 510.7
08/05 11:20 25.7 58 13.89 16.8 15 19 1013.1 0 30.1 30.7 54.1 142.8 149.6 518.9
08/05 11:10 26.1 60 14.69 17.7 9 11 1013.1 0 31.7 31.9 57.1 150.8 159.5 553.7
08/05 11:00 25.1 62 14.35 17.3 13 24 1013.1 0 31.1 31.7 56.4 149.0 157.0 544.6
08/05 10:50 27.1 55 14.23 17.5 15 19 1013.1 0 30.7 30.8 54.5 143.9 151.4 525.3
08/05 10:40 25.7 61 14.6 17.6 9 13 1013.1 0 31.6 31.9 57.0 150.6 159.1 552.2
08/05 10:30 25.3 62 14.51 17.5 15 19 1013.1 0 31.4 31.9 57.0 150.4 158.7 550.8
08/05 10:20 25.1 62 14.35 17.5 17 19 1013.1 0 31.1 31.7 56.4 149.0 157.0 544.6
08/05 10:10 24.1 68 14.88 17.8 6 9 1013.1 0 32.3 33.0 59.4 156.9 166.4 577.3
08/05 10:00 24 68 14.79 17.7 6 13 1013.1 0 32.1 32.8 59.1 156.1 165.4 573.7
08/05 09:50 23 73 15 17.9 4 6 1013.1 0 32.6 33.6 60.8 160.5 170.5 591.6
08/05 09:40 22.4 74 14.7 17.5 7 9 1013.1 0 32.1 33.3 59.9 158.3 167.6 581.2
08/05 09:30 22.8 74 15.04 17.9 7 13 1013.1 0 32.7 33.7 61.1 161.4 171.5 595.1
08/05 09:20 22.7 76 15.35 18.2 6 6 1013.1 0 33.4 34.3 62.6 165.2 176.2 611.5
08/05 09:10 22.1 77 15.03 18 6 7 1013.1 0 32.8 34.0 61.6 162.8 173.0 600.1
08/05 09:00 21.9 80 15.44 18.3 4 7 1013.1 0 33.7 34.8 63.6 168.0 179.4 622.5
08/05 08:50 21.7 81 15.45 18.3 2 4 1013.1 0 33.7 34.9 63.8 168.6 180.1 624.6
08/05 08:40 21.7 83 15.83 18.8 4 6 1013.1 0 34.5 35.6 65.6 173.2 185.7 644.2
08/05 08:30 21.1 89 16.4 19.2 2 7 1013.1 0 35.8 36.9 68.7 181.6 195.8 679.4
08/05 08:20 20.6 92 16.46 19.2 4 6 1013.1 0 36.0 37.3 69.4 183.5 198.0 687.1
08/05 08:10 19.8 94 16.05 18.8 4 6 1013.1 0 35.2 36.8 68.2 180.3 193.8 672.3
08/05 08:00 19.4 97 16.18 18.9 4 6 1013.1 0 35.5 37.3 69.2 182.9 196.9 682.9
08/05 07:50 18.8 98 15.78 18.4 6 6 1013.1 0 34.7 36.8 67.9 179.3 192.2 666.7
08/05 07:40 18.1 97 14.99 17.7 6 6 1013.1 0 33.0 35.6 64.8 171.0 181.8 630.3
08/05 07:30 18.1 99 15.3 17.9 4 6 1013.1 0 33.7 36.1 66.2 174.9 186.6 646.9
08/05 07:20 17.9 99 15.11 17.7 4 6 1013.1 0 33.3 35.9 65.5 173.0 184.2 638.4
08/05 07:10 17.7 99 14.94 17.5 4 4 1013.1 0 33.0 35.6 64.9 171.3 182.0 631.0
08/05 07:00 17.5 99 14.76 17.3 2 4 1013.1 0 32.6 35.4 64.2 169.5 179.8 623.0
08/05 06:50 17.2 97 14.2 16.8 4 4 1013.1 0 31.4 34.5 61.8 163.2 171.9 595.7
08/05 06:40 16.9 97 13.95 16.5 6 7 1013.1 0 30.9 34.1 60.9 160.8 168.8 584.8
08/05 06:30 17.2 98 14.35 16.9 6 6 1013.1 0 31.7 34.7 62.5 165.1 174.2 603.6
08/05 06:20 17.3 97 14.29 16.9 6 6 1013.1 0 31.6 34.6 62.2 164.1 173.1 599.6
08/05 06:10 17.5 97 14.46 17.1 6 7 1013.1 0 31.9 34.8 62.8 165.8 175.2 607.0
08/05 06:00 17.8 98 14.87 17.5 7 9 1013.1 0 32.8 35.5 64.4 170.2 180.7 626.4
08/05 05:50 17.9 97 14.81 17.5 6 6 1013.1 0 32.7 35.3 64.1 169.2 179.6 622.4
08/05 05:40 17.8 97 14.72 17.4 6 6 1013.1 0 32.5 35.2 63.7 168.3 178.4 618.4
08/05 05:30 18.2 98 15.23 17.9 0 0 1013.1 0 33.5 36.0 65.8 173.8 185.3 642.3
08/05 05:20 18.1 97 14.99 17.7 0 0 1013.1 0 33.0 35.6 64.8 171.0 181.8 630.3
08/05 05:10 18.1 97 14.99 17.7 0 0 1013.1 0 33.0 35.6 64.8 171.0 181.8 630.3
08/05 05:00 17.9 98 14.96 17.6 4 4 1013.1 0 33.0 35.6 64.8 171.1 181.9 630.4
08/05 04:50 17.8 97 14.72 17.3 4 4 1013.1 0 32.5 35.2 63.7 168.3 178.4 618.4
08/05 04:40 17.9 96 14.66 17.2 4 4 1013.1 0 32.3 35.0 63.4 167.4 177.3 614.4
08/05 04:30 18.2 96 14.92 17.6 4 6 1013.1 0 32.9 35.4 64.3 169.9 180.5 625.7
08/05 04:20 18.4 97 15.26 17.9 4 4 1013.1 0 33.6 35.9 65.8 173.7 185.2 642.2
08/05 04:10 18.4 97 15.26 17.9 0 0 1013.1 0 33.6 35.9 65.8 173.7 185.2 642.2
08/05 04:00 18.4 96 15.1 17.8 0 2 1013.1 0 33.2 35.6 65.0 171.7 182.8 633.7
08/05 03:50 18.6 94 14.96 17.6 2 2 1013.1 0 32.9 35.3 64.2 169.5 180.2 624.6
08/05 03:40 18.7 94 15.05 17.7 4 4 1013.1 0 33.1 35.4 64.5 170.4 181.3 628.5
08/05 03:30 18.9 94 15.23 17.9 4 6 1013.1 0 33.5 35.7 65.2 172.2 183.5 636.4
08/05 03:20 19.1 93 15.24 17.9 4 4 1013.1 0 33.5 35.6 65.1 171.9 183.2 635.2
08/05 03:10 19.2 92 15.17 17.8 2 4 1013.1 0 33.3 35.4 64.7 170.8 181.9 630.7
08/05 03:00 19.5 92 15.44 18.2 4 6 1013.1 0 33.9 35.8 65.7 173.4 185.3 642.4
08/05 02:50 19.4 93 15.52 18.2 4 6 1013.1 0 34.1 36.0 66.1 174.6 186.7 647.5
08/05 02:40 19.2 94 15.5 18.2 4 4 1013.1 0 34.0 36.1 66.2 174.9 186.9 648.2
08/05 02:30 19.4 94 15.68 18.4 4 6 1013.1 0 34.4 36.3 66.9 176.6 189.2 656.1
08/05 02:20 19.3 94 15.59 18.4 6 6 1013.1 0 34.2 36.2 66.5 175.7 188.0 652.1
08/05 02:10 19.3 94 15.59 18.3 6 6 1013.1 0 34.2 36.2 66.5 175.7 188.0 652.1
08/05 02:00 19.1 94 15.41 18.1 6 7 1013.1 0 33.8 35.9 65.9 174.0 185.8 644.2
08/05 01:50 19.1 94 15.41 18.2 7 7 1013.1 0 33.8 35.9 65.9 174.0 185.8 644.2
08/05 01:40 18.9 94 15.23 17.9 6 7 1013.1 0 33.5 35.7 65.2 172.2 183.5 636.4
08/05 01:30 19 94 15.32 18 7 9 1013.1 0 33.7 35.8 65.5 173.1 184.7 640.3
08/05 01:20 19 94 15.32 18.1 7 7 1013.1 0 33.7 35.8 65.5 173.1 184.7 640.3
08/05 01:10 18.9 94 15.23 18 7 9 1013.1 0 33.5 35.7 65.2 172.2 183.5 636.4
08/05 01:00 19.1 95 15.57 18.3 6 7 1013.1 0 34.2 36.2 66.6 176.0 188.2 652.8
08/05 00:50 19.2 96 15.83 18.5 4 4 1013.1 0 34.7 36.7 67.7 179.0 192.0 665.8
08/05 00:40 19.1 94 15.41 18.2 4 4 1013.1 0 33.8 35.9 65.9 174.0 185.8 644.2
08/05 00:30 19.2 94 15.5 18.2 4 6 1013.1 0 34.0 36.1 66.2 174.9 186.9 648.2
08/05 00:20 19.3 94 15.59 18.3 4 4 1013.1 0 34.2 36.2 66.5 175.7 188.0 652.1
08/05 00:10 19.4 94 15.68 18.5 7 7 1013.1 0 34.4 36.3 66.9 176.6 189.2 656.1
08/05 00:00 19.4 96 16.02 18.7 7 11 1013.1 0 35.1 36.9 68.5 180.9 194.4 674.3
07/05 23:50 19.3 94 15.59 18.4 7 7 1013.1 0 34.2 36.2 66.5 175.7 188.0 652.1
07/05 23:40 19.4 94 15.68 18.5 9 9 1013.1 0 34.4 36.3 66.9 176.6 189.2 656.1
07/05 23:30 19.4 95 15.85 18.6 9 11 1013.1 0 34.8 36.6 67.7 178.8 191.8 665.1
07/05 23:20 19.5 94 15.77 18.5 9 9 1013.1 0 34.6 36.4 67.2 177.5 190.3 660.0
07/05 23:10 19.5 94 15.77 18.5 9 11 1013.1 0 34.6 36.4 67.2 177.5 190.3 660.0
07/05 23:00 19.6 93 15.7 18.4 9 11 1013.1 0 34.4 36.3 66.8 176.4 189.0 655.4
07/05 22:50 19.7 93 15.79 18.5 7 9 1013.1 0 34.6 36.4 67.1 177.3 190.1 659.3
07/05 22:40 19.8 93 15.88 18.6 9 11 1013.1 0 34.8 36.5 67.4 178.2 191.2 663.2
07/05 22:30 20 92 15.9 18.7 7 11 1013.1 0 34.8 36.5 67.4 178.0 191.0 662.5
07/05 22:20 20.1 92 15.99 18.7 7 9 1013.1 0 35.0 36.6 67.7 178.9 192.1 666.5
07/05 22:10 20.1 92 15.99 18.7 9 11 1013.1 0 35.0 36.6 67.7 178.9 192.1 666.5
07/05 22:00 20 93 16.07 18.8 9 11 1013.1 0 35.2 36.8 68.2 180.1 193.6 671.6
07/05 21:50 20.1 92 15.99 18.7 7 9 1013.1 0 35.0 36.6 67.7 178.9 192.1 666.5
07/05 21:40 20.2 90 15.74 18.6 9 11 1013.1 0 34.5 36.1 66.4 175.5 188.1 652.3
07/05 21:30 20.2 91 15.91 18.7 11 13 1013.1 0 34.8 36.4 67.2 177.6 190.7 661.3
07/05 21:20 20.3 90 15.83 18.7 9 11 1013.1 0 34.6 36.2 66.8 176.4 189.2 656.2
07/05 21:10 20.3 90 15.83 18.7 9 11 1013.1 0 34.6 36.2 66.8 176.4 189.2 656.2
07/05 21:00 20.4 91 16.1 18.9 11 13 1013.1 0 35.2 36.7 67.9 179.5 193.0 669.7
07/05 20:50 20.5 90 16.01 18.8 11 15 1013.1 0 35.0 36.4 67.4 178.2 191.4 664.0
07/05 20:40 20.5 90 16.01 18.9 11 13 1013.1 0 35.0 36.4 67.4 178.2 191.4 664.0
07/05 20:30 20.6 91 16.29 19.1 9 13 1013.1 0 35.6 36.9 68.6 181.4 195.4 678.0
07/05 20:20 20.7 90 16.2 19.1 11 13 1013.1 0 35.4 36.7 68.1 180.0 193.8 672.3
07/05 20:10 20.9 90 16.39 19.3 9 11 1013.1 0 35.8 37.0 68.8 181.9 196.2 680.6
07/05 20:00 21 90 16.49 19.3 9 13 1013.1 0 36.0 37.1 69.2 182.9 197.4 685.1

Last Refresh: 08-May-2026 12:07:21

Bureau of Meteorology